Terminal Aerodrome Forecast
Issued by NWS Wilmington, OH

Current Version | Previous Version | Graphics & Text | Print | Product List | Glossary On
Versions: 1 2 3 4 5 6 7 8 9 10 11 12 13 14 15 16 17
664
FTUS41 KILN 170521
TAFDAY
TAF
KDAY 170521Z 1706/1806 VRB03KT P6SM SKC
     FM171100 00000KT 4SM BR FEW250
     FM171300 19004KT P6SM FEW060 SCT250
     FM180000 00000KT P6SM SCT060 BKN250=

USA.gov is the U.S. government's official web portal to all federal, state and local government web resources and services.